Time;durP1;ratioP1;P1;durP2;ratioP2;P2;SDS_P1;SDS_P2;PMS_P1;PMS_P2;Temp;Humidity;BMP_temperature;BMP_pressure;BME280_temperature;BME280_humidity;BME280_pressure;Samples;Min_cycle;Max_cycle;Signal;HPM_P1;HPM_P2
2022/04/26 04:46:35;;;;;;;;;;;;;;;;;;;;;
2022/04/26 04:50:53;;;;;;;18.52;7.97;;;8.20;99.90;;;;;;4681243;30;20053;-90
2022/04/26 05:22:28;;;;;;;19.73;9.25;;;8.40;99.90;;;;;;4616994;31;20441;-85
2022/04/26 05:25:45;;;;;;;14.80;8.93;;;8.40;99.90;;;;;;4698800;30;20032;-89
2022/04/26 05:32:49;;;;;;;15.10;9.13;;;8.60;99.90;;;;;;4822000;29;20617;-82
2022/04/26 05:40:15;;;;;;;14.80;8.10;;;8.80;99.90;;;;;;4831777;29;20045;-92
2022/04/26 05:54:26;;;;;;;13.90;9.07;;;9.10;99.90;;;;;;4891570;29;20501;-86
2022/04/26 06:02:32;;;;;;;31.92;17.33;;;9.30;99.90;;;;;;4753238;29;22851;-89
2022/04/26 06:05:02;;;;;;;13.98;8.52;;;9.50;99.90;;;;;;4781814;29;20408;-78
2022/04/26 06:22:15;;;;;;;14.48;7.68;;;9.90;99.90;;;;;;4715893;30;20160;-88
2022/04/26 06:25:29;;;;;;;15.48;9.88;;;9.90;99.90;;;;;;4716585;30;20047;-87
2022/04/26 06:28:59;;;;;;;;;;;;;;;;;;;;;
2022/04/26 06:32:58;;;;;;;14.65;7.07;;;9.90;99.90;;;;;;4749686;30;20489;-88
2022/04/26 06:35:27;;;;;;;20.30;7.80;;;10.00;99.90;;;;;;4839738;29;20033;-85
2022/04/26 06:38:21;;;;;;;12.15;6.60;;;10.10;99.90;;;;;;4855568;29;20072;-90
2022/04/26 06:45:07;;;;;;;12.43;6.55;;;10.20;99.90;;;;;;4830545;29;20048;-88
2022/04/26 06:48:49;;;;;;;16.23;7.80;;;10.20;99.90;;;;;;4817358;29;20133;-87
2022/04/26 06:51:43;;;;;;;18.15;7.47;;;10.30;99.90;;;;;;4824980;29;20042;-88
2022/04/26 07:02:55;;;;;;;13.60;7.40;;;10.50;99.90;;;;;;4848865;29;21491;-88
2022/04/26 07:06:18;;;;;;;12.75;7.32;;;10.70;99.90;;;;;;4797686;29;20046;-83
2022/04/26 07:09:11;;;;;;;14.77;7.22;;;10.70;99.90;;;;;;4799696;29;20407;-84
2022/04/26 07:29:50;;;;;;;12.73;7.15;;;10.70;99.90;;;;;;4806253;29;20064;-85
2022/04/26 07:32:18;;;;;;;23.13;11.93;;;10.50;99.90;;;;;;4806959;29;20030;-84
2022/04/26 07:34:47;;;;;;;15.20;8.38;;;10.40;99.90;;;;;;4803942;29;20038;-79
2022/04/26 07:40:55;;;;;;;16.90;6.53;;;10.30;99.90;;;;;;4745477;30;20060;-83
2022/04/26 07:44:22;;;;;;;;;;;;;;;;;;;;;
2022/04/26 07:47:22;;;;;;;;;;;;;;;;;;;;;
2022/04/26 07:50:21;;;;;;;10.98;6.13;;;10.30;99.90;;;;;;4780470;29;20045;-85
2022/04/26 07:53:13;;;;;;;9.77;5.82;;;10.30;99.90;;;;;;4863065;29;20385;-87
2022/04/26 07:56:39;;;;;;;12.38;5.68;;;10.20;99.90;;;;;;4896133;29;20389;-87
2022/04/26 07:59:55;;;;;;;10.20;4.78;;;10.20;99.90;;;;;;4844454;29;20052;-84
2022/04/26 08:03:02;;;;;;;;;;;;;;;;;;;;;
2022/04/26 08:06:26;;;;;;;11.93;4.80;;;10.50;99.90;;;;;;4882801;29;20277;-86
2022/04/26 08:17:45;;;;;;;9.15;3.50;;;11.60;99.90;;;;;;4740133;30;20057;-88
2022/04/26 08:32:58;;;;;;;6.72;3.47;;;12.20;99.90;;;;;;4681982;30;20053;-90
2022/04/26 08:36:05;;;;;;;;;;;;;;;;;;;;;
2022/04/26 08:39:55;;;;;;;;;;;;;;;;;;;;;
2022/04/26 08:43:00;;;;;;;7.07;2.55;;;12.60;99.90;;;;;;4858452;29;20044;-88
2022/04/26 08:46:11;;;;;;;5.47;2.30;;;13.10;99.90;;;;;;4847267;29;20705;-88
2022/04/26 08:51:45;;;;;;;6.70;3.75;;;13.60;99.90;;;;;;4822652;29;20046;-87
2022/04/26 08:54:21;;;;;;;;;;;;;;;;;;;;;
2022/04/26 08:56:54;;;;;;;7.57;2.83;;;13.90;99.90;;;;;;4852888;29;20044;-88
2022/04/26 08:59:52;;;;;;;8.68;4.43;;;14.10;99.90;;;;;;4847047;29;20049;-86
2022/04/26 09:02:30;;;;;;;5.45;2.10;;;14.20;99.90;;;;;;4837447;29;20049;-87
2022/04/26 09:05:25;;;;;;;4.50;1.63;;;14.30;99.90;;;;;;4842318;29;20057;-87
2022/04/26 09:16:48;;;;;;;;;;;;;;;;;;;;;
2022/04/26 09:33:39;;;;;;;;;;;;;;;;;;;;;
2022/04/26 09:40:55;;;;;;;5.75;2.20;;;15.60;93.80;;;;;;4742308;30;20055;-86
2022/04/26 09:45:23;;;;;;;;;;;;;;;;;;;;;
2022/04/26 09:49:28;;;;;;;6.47;1.90;;;15.40;93.50;;;;;;4741772;30;20059;-88
2022/04/26 09:52:47;;;;;;;5.75;1.73;;;15.20;94.00;;;;;;4747401;30;20058;-81
2022/04/26 09:55:59;;;;;;;;;;;;;;;;;;;;;
2022/04/26 10:02:13;;;;;;;4.10;1.25;;;15.80;93.30;;;;;;4723407;30;20513;-87
2022/04/26 10:04:49;;;;;;;5.72;3.13;;;15.80;92.70;;;;;;4777846;29;20057;-85
2022/04/26 10:07:19;;;;;;;6.82;1.95;;;15.80;91.90;;;;;;4776662;29;20047;-85
2022/04/26 10:09:51;;;;;;;4.97;1.92;;;15.80;91.50;;;;;;4793238;29;20153;-84
2022/04/26 10:12:36;;;;;;;6.47;2.63;;;15.90;91.20;;;;;;4849733;29;20037;-85
2022/04/26 10:15:09;;;;;;;5.45;3.25;;;16.00;91.60;;;;;;4849961;29;20938;-85
2022/04/26 10:17:59;;;;;;;4.72;2.17;;;16.30;91.30;;;;;;4862956;29;20032;-86
2022/04/26 10:20:53;;;;;;;;;;;;;;;;;;;;;
2022/04/26 10:24:25;;;;;;;7.10;2.83;;;16.90;90.30;;;;;;4870706;29;20052;-84
2022/04/26 10:26:52;;;;;;;7.25;2.25;;;17.10;89.20;;;;;;4834843;29;20045;-84
2022/04/26 10:29:29;;;;;;;4.60;1.80;;;17.20;88.60;;;;;;4838250;29;20061;-86
2022/04/26 10:32:54;;;;;;;5.75;1.75;;;17.20;88.20;;;;;;4828359;29;20720;-85
2022/04/26 10:36:26;;;;;;;7.95;2.90;;;17.10;87.80;;;;;;4793314;29;20050;-86
2022/04/26 10:39:24;;;;;;;;;;;;;;;;;;;;;
2022/04/26 10:42:15;;;;;;;4.28;1.33;;;17.30;87.20;;;;;;4769355;29;20508;-87
2022/04/26 10:54:25;;;;;;;5.20;2.10;;;18.90;82.70;;;;;;4660575;30;20046;-87
2022/04/26 10:58:19;;;;;;;3.47;1.85;;;19.90;77.30;;;;;;4643904;30;20128;-86
2022/04/26 11:01:08;;;;;;;;;;;;;;;;;;;;;
2022/04/26 11:04:23;;;;;;;3.78;1.80;;;20.40;71.60;;;;;;4702667;30;20102;-85
2022/04/26 11:07:53;;;;;;;4.65;1.20;;;20.10;70.00;;;;;;4751428;30;20050;-85
2022/04/26 11:10:27;;;;;;;3.00;1.30;;;19.90;71.70;;;;;;4751102;30;20689;-84
2022/04/26 11:13:32;;;;;;;5.53;1.83;;;19.70;71.70;;;;;;4728615;30;20059;-85
2022/04/26 11:16:51;;;;;;;;;;;;;;;;;;;;;
2022/04/26 11:19:53;;;;;;;6.07;1.67;;;18.90;70.40;;;;;;4726658;30;20048;-85
2022/04/26 11:22:29;;;;;;;3.80;1.58;;;18.60;70.60;;;;;;4725755;30;20049;-84
2022/04/26 11:28:39;;;;;;;4.00;1.30;;;19.00;70.20;;;;;;4738097;30;21040;-85
2022/04/26 11:36:08;;;;;;;5.13;2.45;;;20.00;67.00;;;;;;4756222;30;20055;-84
2022/04/26 11:39:17;;;;;;;5.85;1.90;;;20.30;64.20;;;;;;4774438;29;20051;-94
2022/04/26 11:42:25;;;;;;;3.90;1.85;;;20.10;63.70;;;;;;4782426;29;20072;-94
2022/04/26 11:45:37;;;;;;;5.05;1.83;;;20.10;64.70;;;;;;4826901;29;20041;-91
2022/04/26 11:49:32;;;;;;;;;;;;;;;;;;;;;
2022/04/26 11:52:46;;;;;;;4.30;1.98;;;21.20;62.30;;;;;;4859345;29;20048;-94
2022/04/26 11:55:29;;;;;;;;;;;20.90;62.10;;;;;;4835554;29;20061;-94
2022/04/26 11:58:43;;;;;;;3.13;1.20;;;20.80;62.90;;;;;;4824095;29;19919;-93
2022/04/26 12:01:30;;;;;;;3.15;1.58;;;20.40;63.20;;;;;;4854820;29;20063;-94
2022/04/26 12:04:46;;;;;;;8.38;3.08;;;20.70;63.70;;;;;;4868470;29;20044;-92
2022/04/26 12:12:05;;;;;;;6.75;2.00;;;21.30;61.40;;;;;;4819268;29;20191;-87
2022/04/26 12:15:48;;;;;;;3.22;1.75;;;22.50;58.50;;;;;;4782693;29;20043;-88
2022/04/26 12:19:24;;;;;;;;;;;;;;;;;;;;;
2022/04/26 12:23:15;;;;;;;;;;;;;;;;;;;;;
2022/04/26 12:26:28;;;;;;;4.53;1.58;;;22.10;57.30;;;;;;4708188;30;20039;-92
2022/04/26 12:29:13;;;;;;;3.20;1.52;;;22.10;56.60;;;;;;4777031;29;20500;-94
2022/04/26 12:31:48;;;;;;;3.28;1.67;;;22.50;55.00;;;;;;4776391;30;20060;-91
2022/04/26 12:39:11;;;;;;;4.28;1.25;;;22.90;54.20;;;;;;4791608;29;20124;-84
2022/04/26 12:42:35;;;;;;;3.40;1.40;;;22.10;55.60;;;;;;4757275;29;20046;-92
2022/04/26 12:50:31;;;;;;;6.97;3.47;;;23.00;53.30;;;;;;4781299;29;20049;-93
2022/04/26 12:53:06;;;;;;;7.78;4.40;;;23.20;53.60;;;;;;4845466;29;20050;-93
2022/04/26 12:56:25;;;;;;;4.43;1.98;;;22.80;52.40;;;;;;4826783;29;20049;-92
2022/04/26 12:59:24;;;;;;;13.70;8.90;;;23.40;50.30;;;;;;4842115;29;20140;-93
2022/04/26 13:01:56;;;;;;;5.22;4.10;;;22.70;50.10;;;;;;4839021;29;20044;-92
2022/04/26 13:05:44;;;;;;;4.68;2.35;;;22.00;52.10;;;;;;4871125;29;20168;-93
2022/04/26 13:08:26;;;;;;;3.17;1.40;;;22.60;52.40;;;;;;4850403;29;20055;-92
2022/04/26 13:11:44;;;;;;;2.38;1.35;;;23.10;51.00;;;;;;4861957;29;20051;-84
2022/04/26 13:14:14;;;;;;;3.80;1.65;;;23.80;50.10;;;;;;4844520;29;20058;-83
2022/04/26 13:16:55;;;;;;;3.92;1.65;;;24.40;48.80;;;;;;4887090;29;20542;-84
2022/04/26 13:19:32;;;;;;;1.95;0.75;;;25.00;48.80;;;;;;4888362;29;20575;-93
2022/04/26 13:22:19;;;;;;;2.60;1.20;;;25.60;47.40;;;;;;4858390;29;20512;-84
2022/04/26 13:25:03;;;;;;;1.85;0.90;;;26.30;46.30;;;;;;4843537;29;20041;-85
2022/04/26 13:27:38;;;;;;;2.85;1.00;;;26.90;45.20;;;;;;4847744;29;20483;-84
2022/04/26 13:31:24;;;;;;;2.30;0.90;;;27.40;44.30;;;;;;4880117;29;20048;-84
2022/04/26 13:34:29;;;;;;;3.40;1.10;;;27.90;43.10;;;;;;4853854;29;20480;-84
2022/04/26 13:37:07;;;;;;;2.65;1.13;;;28.20;42.90;;;;;;4875970;29;20040;-84
2022/04/26 13:40:01;;;;;;;2.75;1.05;;;28.40;41.50;;;;;;4888201;29;20489;-85
2022/04/26 13:42:45;;;;;;;3.50;1.10;;;28.50;41.40;;;;;;4863520;29;20049;-84
2022/04/26 13:48:24;;;;;;;4.80;1.58;;;28.70;39.90;;;;;;4858334;29;20047;-84
2022/04/26 13:51:06;;;;;;;2.05;1.00;;;29.10;39.10;;;;;;4889712;29;20075;-84
2022/04/26 13:54:06;;;;;;;2.30;1.10;;;29.00;37.60;;;;;;4871270;29;20273;-84
2022/04/26 14:00:17;;;;;;;1.80;1.10;;;27.80;38.80;;;;;;4874820;29;20032;-84
2022/04/26 14:03:01;;;;;;;2.42;1.00;;;27.90;39.10;;;;;;4847208;29;20048;-94
2022/04/26 14:05:41;;;;;;;3.67;0.80;;;28.50;38.20;;;;;;4847307;29;20041;-94
2022/04/26 14:08:43;;;;;;;;;;;;;;;;;;;;;
2022/04/26 14:11:58;;;;;;;;;;;;;;;;;;;;;
2022/04/26 14:24:48;;;;;;;3.15;1.00;;;24.00;41.80;;;;;;4877893;29;20048;-90
2022/04/26 14:27:51;;;;;;;1.52;0.95;;;24.20;41.30;;;;;;4867607;29;20063;-93
2022/04/26 14:31:01;;;;;;;2.45;1.17;;;25.00;40.50;;;;;;4889994;29;20039;-84
2022/04/26 14:34:02;;;;;;;2.38;1.10;;;24.30;40.90;;;;;;4855557;29;20519;-83
2022/04/26 14:36:32;;;;;;;2.10;1.10;;;23.50;42.40;;;;;;4838423;29;20086;-84
2022/04/26 14:39:12;;;;;;;2.92;1.02;;;23.00;43.30;;;;;;4856803;29;20560;-83
2022/04/26 14:41:47;;;;;;;1.95;0.95;;;22.80;43.80;;;;;;4855325;29;20033;-82
2022/04/26 14:44:36;;;;;;;3.35;0.80;;;22.50;44.20;;;;;;4857221;29;20048;-84
2022/04/26 14:47:07;;;;;;;4.45;0.95;;;22.20;44.90;;;;;;4831951;29;20029;-84
2022/04/26 14:50:05;;;;;;;1.73;0.80;;;21.90;45.90;;;;;;4824304;29;20052;-84
2022/04/26 14:52:34;;;;;;;2.38;1.02;;;21.60;46.30;;;;;;4869239;29;20060;-83
2022/04/26 14:55:26;;;;;;;4.65;1.25;;;21.30;45.90;;;;;;4823897;29;20048;-83
2022/04/26 14:58:00;;;;;;;2.85;1.15;;;21.00;46.80;;;;;;4853503;29;20140;-83
2022/04/26 15:00:40;;;;;;;3.22;1.55;;;20.70;48.30;;;;;;4822009;29;20159;-83
2022/04/26 15:03:14;;;;;;;3.53;0.82;;;20.60;48.90;;;;;;4861449;29;20072;-92
2022/04/26 15:05:44;;;;;;;3.00;1.58;;;20.60;49.20;;;;;;4858220;29;20049;-92
2022/04/26 15:18:14;;;;;;;5.25;1.20;;;19.70;49.60;;;;;;4842085;29;20050;-90
2022/04/26 15:20:47;;;;;;;1.90;1.00;;;19.60;49.80;;;;;;4843121;29;20059;-88
2022/04/26 15:23:19;;;;;;;2.63;1.05;;;19.50;51.20;;;;;;4863484;29;20036;-92
2022/04/26 15:26:11;;;;;;;4.65;1.20;;;19.40;51.30;;;;;;4849366;29;20100;-91
2022/04/26 15:29:11;;;;;;;1.73;0.90;;;19.40;52.00;;;;;;4841826;29;20033;-90
2022/04/26 15:31:40;;;;;;;2.95;0.80;;;19.30;51.80;;;;;;4860917;29;20048;-92
2022/04/26 15:34:20;;;;;;;3.78;1.40;;;19.30;52.00;;;;;;4851211;29;20045;-90
2022/04/26 15:36:53;;;;;;;4.65;1.35;;;19.30;52.20;;;;;;4874619;29;20041;-91
2022/04/26 15:39:47;;;;;;;4.82;1.30;;;19.30;52.40;;;;;;4863063;29;20579;-90
2022/04/26 15:42:31;;;;;;;2.03;0.88;;;19.20;52.80;;;;;;4871417;29;20044;-89
2022/04/26 15:45:36;;;;;;;3.65;1.50;;;19.10;53.30;;;;;;4863915;29;20059;-89
2022/04/26 15:48:08;;;;;;;3.70;1.05;;;18.90;53.40;;;;;;4855585;29;20357;-84
2022/04/26 15:50:53;;;;;;;1.90;1.20;;;18.70;53.70;;;;;;4873333;29;20056;-83
2022/04/26 15:53:22;;;;;;;4.93;1.30;;;18.70;54.10;;;;;;4881802;29;20041;-84
2022/04/26 15:55:50;;;;;;;2.38;0.90;;;18.70;54.00;;;;;;4877101;29;20048;-83
2022/04/26 15:58:49;;;;;;;3.10;1.25;;;18.60;54.20;;;;;;4871404;29;20033;-83
2022/04/26 16:01:16;;;;;;;3.90;0.80;;;18.70;54.10;;;;;;4877194;29;20047;-82
2022/04/26 16:04:27;;;;;;;4.05;1.10;;;18.70;54.00;;;;;;4871290;29;20051;-83
2022/04/26 16:07:10;;;;;;;4.32;1.33;;;18.60;54.30;;;;;;4907939;29;20040;-83
2022/04/26 16:23:05;;;;;;;2.03;1.08;;;18.00;55.60;;;;;;4865506;29;20051;-89
2022/04/26 16:25:42;;;;;;;2.22;0.95;;;17.90;55.80;;;;;;4865565;29;20056;-90
2022/04/26 16:28:40;;;;;;;5.97;1.45;;;17.80;56.00;;;;;;4876788;29;20394;-91
2022/04/26 16:31:13;;;;;;;5.65;2.80;;;17.70;56.30;;;;;;4881274;29;21282;-89
2022/04/26 16:33:44;;;;;;;8.63;6.00;;;17.60;56.70;;;;;;4882019;29;20044;-91
2022/04/26 16:36:25;;;;;;;4.55;2.67;;;17.70;56.80;;;;;;4865969;29;20028;-88
2022/04/26 16:39:10;;;;;;;2.25;1.10;;;17.60;56.50;;;;;;4892146;29;20048;-79
2022/04/26 16:41:46;;;;;;;2.90;1.02;;;17.40;56.70;;;;;;4878715;29;20037;-90
2022/04/26 16:44:42;;;;;;;4.32;1.90;;;17.10;56.90;;;;;;4852081;29;20067;-92
2022/04/26 16:47:25;;;;;;;20.08;11.70;;;16.90;57.30;;;;;;4878659;29;20048;-88
2022/04/26 16:50:22;;;;;;;7.47;4.18;;;16.60;57.70;;;;;;4875532;29;20048;-88
2022/04/26 16:53:12;;;;;;;14.18;8.70;;;16.30;58.10;;;;;;4832950;29;20068;-85
2022/04/26 16:55:43;;;;;;;8.48;3.92;;;16.20;58.50;;;;;;4846660;29;20056;-83
2022/04/26 16:58:11;;;;;;;11.95;7.47;;;16.10;58.60;;;;;;4874387;29;20151;-82
2022/04/26 17:00:46;;;;;;;13.50;8.15;;;16.00;58.60;;;;;;4838994;29;20046;-82
2022/04/26 17:03:34;;;;;;;6.63;4.47;;;15.90;58.90;;;;;;4856129;29;20029;-82
2022/04/26 17:06:11;;;;;;;7.40;4.72;;;15.80;59.20;;;;;;4873059;29;20588;-85
2022/04/26 17:08:41;;;;;;;3.47;1.20;;;15.60;59.40;;;;;;4846223;29;20052;-85
2022/04/26 17:14:11;;;;;;;3.83;1.15;;;15.40;59.80;;;;;;4860283;29;20397;-82
2022/04/26 17:17:00;;;;;;;11.52;8.05;;;15.30;60.00;;;;;;4860314;29;20036;-85
2022/04/26 17:19:43;;;;;;;6.10;3.80;;;15.30;60.20;;;;;;4856501;29;20059;-81
2022/04/26 17:22:11;;;;;;;7.75;5.32;;;15.20;60.20;;;;;;4858068;29;20044;-91
2022/04/26 17:27:36;;;;;;;3.87;2.20;;;15.00;60.40;;;;;;4858172;29;20059;-86
2022/04/26 17:30:15;;;;;;;4.05;1.70;;;14.90;60.50;;;;;;4856299;29;20070;-84
2022/04/26 17:32:48;;;;;;;2.53;1.60;;;14.90;60.60;;;;;;4855284;29;20381;-88
2022/04/26 17:35:14;;;;;;;;;;;14.80;60.50;;;;;;4842784;29;20029;-79
2022/04/26 17:37:43;;;;;;;3.83;0.90;;;14.70;60.30;;;;;;4875442;29;19916;-84
2022/04/26 17:40:26;;;;;;;4.20;0.95;;;14.60;60.40;;;;;;4859615;29;20041;-80
2022/04/26 17:42:59;;;;;;;2.20;0.70;;;14.50;60.50;;;;;;4874401;29;20047;-80
2022/04/26 17:46:27;;;;;;;2.42;0.93;;;14.40;60.60;;;;;;4869978;29;20048;-87
2022/04/26 17:49:17;;;;;;;2.15;0.60;;;14.30;60.80;;;;;;4858629;29;20052;-79
2022/04/26 17:52:06;;;;;;;3.28;0.80;;;14.20;61.00;;;;;;4837966;29;20044;-85
2022/04/26 17:57:31;;;;;;;5.38;2.90;;;13.90;61.40;;;;;;4891463;29;20504;-87
2022/04/26 18:00:15;;;;;;;27.20;17.63;;;13.90;61.40;;;;;;4844141;29;20353;-88
2022/04/26 18:03:12;;;;;;;10.88;6.63;;;13.80;61.60;;;;;;4865404;29;20052;-82
2022/04/26 18:05:46;;;;;;;4.47;2.30;;;13.70;61.60;;;;;;4862167;29;20049;-89
2022/04/26 18:08:19;;;;;;;2.83;1.10;;;13.60;61.50;;;;;;4874179;29;20477;-81
2022/04/26 18:10:47;;;;;;;8.00;5.13;;;13.50;61.70;;;;;;4892931;29;20039;-91
2022/04/26 18:13:20;;;;;;;3.45;2.17;;;13.40;61.80;;;;;;4848931;29;20033;-82
2022/04/26 18:15:57;;;;;;;;;;;;;;;;;;;;;
2022/04/26 18:18:32;;;;;;;1.58;0.55;;;13.30;62.00;;;;;;4891633;29;20037;-85
2022/04/26 18:21:00;;;;;;;2.05;0.60;;;13.20;62.80;;;;;;4858662;29;20043;-84
2022/04/26 18:23:29;;;;;;;2.33;0.70;;;13.10;62.40;;;;;;4866581;29;20055;-85
2022/04/26 18:26:16;;;;;;;1.95;0.75;;;13.10;62.60;;;;;;4867803;29;20401;-86
2022/04/26 18:28:50;;;;;;;1.83;1.00;;;13.00;62.70;;;;;;4873393;29;20032;-85
2022/04/26 18:31:19;;;;;;;1.42;0.60;;;12.90;62.90;;;;;;4871034;29;20495;-84
2022/04/26 18:33:47;;;;;;;2.50;0.80;;;12.90;63.20;;;;;;4870986;29;20146;-84
2022/04/26 18:36:17;;;;;;;1.60;0.60;;;12.80;63.40;;;;;;4873810;29;20036;-81
2022/04/26 18:38:48;;;;;;;2.88;0.77;;;12.80;63.40;;;;;;4876542;29;20025;-81
2022/04/26 18:41:19;;;;;;;1.80;0.70;;;12.80;63.60;;;;;;4872754;29;20043;-84
2022/04/26 18:43:47;;;;;;;1.85;0.50;;;12.80;63.90;;;;;;4875780;29;20028;-80
2022/04/26 18:46:15;;;;;;;5.22;3.45;;;12.70;64.00;;;;;;4859647;29;20056;-83
2022/04/26 18:48:43;;;;;;;7.32;3.50;;;12.70;64.10;;;;;;4861004;29;20036;-86
2022/04/26 18:51:10;;;;;;;2.67;1.27;;;12.60;64.30;;;;;;4886248;29;20048;-86
2022/04/26 18:53:37;;;;;;;10.00;5.50;;;12.50;64.50;;;;;;4862195;29;20633;-84
2022/04/26 18:56:05;;;;;;;4.38;1.20;;;12.50;64.90;;;;;;4859400;29;20060;-85
2022/04/26 18:58:32;;;;;;;5.32;0.80;;;12.40;65.50;;;;;;4859753;29;20047;-87
2022/04/26 19:01:00;;;;;;;2.72;0.70;;;12.30;65.50;;;;;;4855524;29;20032;-84
2022/04/26 19:03:28;;;;;;;2.80;0.90;;;12.20;65.50;;;;;;4845451;29;20055;-86
2022/04/26 19:05:55;;;;;;;3.05;0.70;;;12.20;65.90;;;;;;4871878;29;21287;-85
2022/04/26 19:08:23;;;;;;;2.40;0.80;;;12.10;65.90;;;;;;4858656;29;20438;-86
2022/04/26 19:13:35;;;;;;;2.05;0.70;;;12.00;66.30;;;;;;4892604;29;20498;-78
2022/04/26 19:16:09;;;;;;;2.38;0.70;;;11.90;66.50;;;;;;4892672;29;20146;-80
2022/04/26 19:18:40;;;;;;;3.30;0.65;;;11.80;66.90;;;;;;4866150;29;20437;-91
2022/04/26 19:24:49;;;;;;;3.35;0.80;;;11.70;68.00;;;;;;4878411;29;20052;-90
2022/04/26 19:31:46;;;;;;;4.15;0.90;;;11.40;68.20;;;;;;4902830;29;20040;-89
2022/04/26 19:39:04;;;;;;;2.45;0.88;;;11.20;69.10;;;;;;4896045;29;20032;-79
2022/04/26 19:41:36;;;;;;;2.33;0.90;;;11.10;69.50;;;;;;4880011;29;20053;-80
2022/04/26 19:44:06;;;;;;;4.30;0.90;;;11.00;70.00;;;;;;4878308;29;20040;-79
2022/04/26 19:46:36;;;;;;;4.45;0.70;;;10.90;70.40;;;;;;4880167;29;20504;-77
2022/04/26 19:49:05;;;;;;;;;;;10.80;70.90;;;;;;4866940;29;20025;-80
2022/04/26 19:51:34;;;;;;;2.38;0.90;;;10.70;71.20;;;;;;4879498;29;19919;-80
2022/04/26 19:54:10;;;;;;;2.65;0.80;;;10.70;71.70;;;;;;4884197;29;20044;-79
2022/04/26 19:56:44;;;;;;;3.63;1.00;;;10.60;72.70;;;;;;4893453;29;20033;-80
2022/04/26 19:59:16;;;;;;;3.60;0.70;;;10.50;72.60;;;;;;4898467;29;20054;-80
2022/04/26 20:01:51;;;;;;;3.58;0.80;;;10.50;72.90;;;;;;4885639;29;20090;-81
2022/04/26 20:04:18;;;;;;;2.65;1.33;;;10.40;73.30;;;;;;4907690;29;20045;-80
2022/04/26 20:06:54;;;;;;;2.72;0.80;;;10.40;73.60;;;;;;4860565;29;20059;-82
2022/04/26 20:09:35;;;;;;;3.30;0.85;;;10.30;73.90;;;;;;4885057;29;20036;-80
2022/04/26 20:12:07;;;;;;;5.47;1.10;;;10.30;74.20;;;;;;4887777;29;20033;-79
2022/04/26 20:14:39;;;;;;;5.40;1.73;;;10.20;74.30;;;;;;4878521;29;20037;-79
2022/04/26 20:17:13;;;;;;;5.15;1.70;;;10.10;74.90;;;;;;4859964;29;20033;-79
2022/04/26 20:19:51;;;;;;;3.55;1.40;;;10.10;75.30;;;;;;4841673;29;20028;-78
2022/04/26 20:22:27;;;;;;;4.40;1.80;;;10.00;75.50;;;;;;4892677;29;20146;-79
2022/04/26 20:24:54;;;;;;;2.78;1.10;;;9.90;75.90;;;;;;4858699;29;20037;-79
2022/04/26 20:30:19;;;;;;;4.00;1.30;;;9.80;76.50;;;;;;4889827;29;20040;-78
2022/04/26 20:33:01;;;;;;;3.50;1.00;;;9.80;77.30;;;;;;4872153;29;20033;-78
2022/04/26 20:35:31;;;;;;;4.00;1.05;;;9.70;77.80;;;;;;4889649;29;20055;-80
2022/04/26 20:38:02;;;;;;;3.00;0.93;;;9.60;78.00;;;;;;4878226;29;20051;-79
2022/04/26 20:40:40;;;;;;;4.95;1.08;;;9.60;78.40;;;;;;4875600;29;20484;-80
2022/04/26 20:43:23;;;;;;;3.58;1.10;;;9.50;79.10;;;;;;4891103;29;20048;-79
2022/04/26 20:45:56;;;;;;;4.38;0.93;;;9.50;79.60;;;;;;4890612;29;20044;-81
2022/04/26 20:48:44;;;;;;;3.92;1.08;;;9.50;79.80;;;;;;4886885;29;20574;-79
2022/04/26 20:51:24;;;;;;;3.40;1.60;;;9.40;80.30;;;;;;4883451;29;20916;-81
2022/04/26 20:53:57;;;;;;;11.57;5.28;;;9.30;81.40;;;;;;4858589;29;20045;-78
2022/04/26 20:56:24;;;;;;;15.50;7.80;;;9.30;82.80;;;;;;4875512;29;20039;-79
2022/04/26 20:59:05;;;;;;;17.33;9.43;;;9.20;82.60;;;;;;4875579;29;20032;-78
2022/04/26 21:01:46;;;;;;;13.23;6.97;;;9.10;83.00;;;;;;4873388;29;20037;-79
2022/04/26 21:04:12;;;;;;;14.23;8.55;;;9.10;83.20;;;;;;4887978;29;20017;-77
2022/04/26 21:07:07;;;;;;;16.20;9.32;;;9.10;83.60;;;;;;4856600;29;20401;-81
2022/04/26 21:09:54;;;;;;;11.30;3.72;;;9.00;84.20;;;;;;4889390;29;20047;-79
2022/04/26 21:12:20;;;;;;;3.78;1.65;;;8.90;85.00;;;;;;4874411;29;20044;-83
2022/04/26 21:14:47;;;;;;;6.38;1.33;;;8.80;85.50;;;;;;4856862;29;20460;-80
2022/04/26 21:17:14;;;;;;;4.97;1.58;;;8.80;86.00;;;;;;4841433;29;20029;-80
2022/04/26 21:19:46;;;;;;;4.32;1.90;;;8.70;86.40;;;;;;4856456;29;20049;-80
2022/04/26 21:22:18;;;;;;;5.20;1.38;;;8.70;87.60;;;;;;4896423;29;20047;-79
2022/04/26 21:24:53;;;;;;;3.40;1.05;;;8.60;88.20;;;;;;4893287;29;20044;-86
2022/04/26 21:27:41;;;;;;;3.38;1.25;;;8.60;88.60;;;;;;4862346;29;20385;-81
2022/04/26 21:30:20;;;;;;;6.80;1.85;;;8.50;89.20;;;;;;4875280;29;20044;-80
2022/04/26 21:32:47;;;;;;;6.28;2.85;;;8.50;89.80;;;;;;4858137;29;20059;-80
2022/04/26 21:35:15;;;;;;;4.25;2.00;;;8.40;90.20;;;;;;4856464;29;20052;-81
2022/04/26 21:37:45;;;;;;;2.80;0.85;;;8.40;90.50;;;;;;4862442;29;21133;-80
2022/04/26 21:40:48;;;;;;;6.97;2.63;;;8.30;90.80;;;;;;4888583;29;20055;-80
2022/04/26 21:43:17;;;;;;;8.25;2.08;;;8.30;91.10;;;;;;4832499;29;20048;-79
2022/04/26 21:45:43;;;;;;;4.65;1.50;;;8.20;91.60;;;;;;4889841;29;20032;-79
2022/04/26 21:48:10;;;;;;;8.00;2.83;;;8.20;91.80;;;;;;4889186;29;20033;-78
2022/04/26 21:53:22;;;;;;;18.02;16.05;;;8.10;92.50;;;;;;4875118;29;20562;-80
2022/04/26 21:55:52;;;;;;;20.85;18.08;;;8.10;92.80;;;;;;4857626;29;20041;-80
2022/04/26 21:58:33;;;;;;;10.27;9.25;;;8.10;93.30;;;;;;5070869;28;20449;-80
2022/04/26 22:01:02;;;;;;;8.10;6.25;;;8.00;93.50;;;;;;5007414;28;20036;-79
2022/04/26 22:03:28;;;;;;;6.00;3.00;;;8.00;93.90;;;;;;5039324;28;20468;-80
2022/04/26 22:05:55;;;;;;;5.35;2.13;;;7.90;94.00;;;;;;5021795;28;20037;-80
2022/04/26 22:08:24;;;;;;;3.97;1.40;;;7.90;94.30;;;;;;5038316;28;20036;-81
2022/04/26 22:10:54;;;;;;;3.65;1.35;;;7.90;94.60;;;;;;5022982;28;20044;-79
2022/04/26 22:13:23;;;;;;;4.40;1.50;;;7.80;94.80;;;;;;5037251;28;20037;-80
2022/04/26 22:15:50;;;;;;;4.53;1.65;;;7.80;94.90;;;;;;5036851;28;20041;-80
2022/04/26 22:18:19;;;;;;;6.55;1.65;;;7.80;95.30;;;;;;5024266;28;20041;-80
2022/04/26 22:20:45;;;;;;;3.28;1.55;;;7.70;95.40;;;;;;5019186;28;20043;-79
2022/04/26 22:23:14;;;;;;;7.85;3.70;;;7.70;95.70;;;;;;5026165;28;20025;-80
2022/04/26 22:25:41;;;;;;;7.13;2.50;;;7.60;96.30;;;;;;5005598;28;20052;-80
2022/04/26 22:28:07;;;;;;;9.90;2.58;;;7.60;96.70;;;;;;5008057;28;20056;-80
2022/04/26 22:30:34;;;;;;;6.28;2.00;;;7.60;97.00;;;;;;5020370;28;20044;-80
2022/04/26 22:33:00;;;;;;;4.28;1.70;;;7.60;97.10;;;;;;5010537;28;20022;-79
2022/04/26 22:35:27;;;;;;;4.53;1.50;;;7.50;97.30;;;;;;5003695;28;20030;-76
2022/04/26 22:37:53;;;;;;;8.77;3.88;;;7.50;97.40;;;;;;5009391;28;20029;-76
2022/04/26 22:40:19;;;;;;;7.55;3.45;;;7.50;97.70;;;;;;5017492;28;20029;-79
2022/04/26 22:42:46;;;;;;;7.95;2.15;;;7.40;98.00;;;;;;5023657;28;20036;-81
2022/04/26 22:45:12;;;;;;;5.70;1.85;;;7.50;98.50;;;;;;5025305;28;20452;-78
2022/04/26 22:47:39;;;;;;;4.78;1.55;;;7.40;98.70;;;;;;4987164;28;20389;-79
2022/04/26 22:50:08;;;;;;;4.55;1.77;;;7.40;98.80;;;;;;4987320;28;20053;-79
2022/04/26 22:52:34;;;;;;;6.05;1.90;;;7.40;99.00;;;;;;5009282;28;20030;-80
2022/04/26 22:55:01;;;;;;;4.75;1.60;;;7.30;99.20;;;;;;4993913;28;20032;-81
2022/04/26 22:57:28;;;;;;;4.78;1.33;;;7.30;99.40;;;;;;5004334;28;20052;-83
2022/04/26 22:59:54;;;;;;;7.05;2.35;;;7.30;99.50;;;;;;5029366;28;20040;-79
2022/04/26 23:02:21;;;;;;;8.63;3.60;;;7.30;99.80;;;;;;5063391;28;20029;-81
2022/04/26 23:04:47;;;;;;;11.70;5.18;;;7.30;99.90;;;;;;5055294;28;20024;-81
2022/04/26 23:07:14;;;;;;;8.15;3.85;;;7.30;99.90;;;;;;5023456;28;20472;-80
2022/04/26 23:09:40;;;;;;;5.22;3.05;;;7.20;99.90;;;;;;5033743;28;20378;-79
2022/04/26 23:12:07;;;;;;;5.05;2.25;;;7.20;99.90;;;;;;5014073;28;20057;-81
2022/04/26 23:14:35;;;;;;;6.07;2.90;;;7.20;99.90;;;;;;5029969;28;20040;-81
2022/04/26 23:17:04;;;;;;;6.38;1.85;;;7.20;99.90;;;;;;4996667;28;20052;-81
2022/04/26 23:19:30;;;;;;;3.38;1.40;;;7.10;99.90;;;;;;5027801;28;20032;-80
2022/04/26 23:21:58;;;;;;;4.07;1.55;;;7.10;99.90;;;;;;5016922;28;20443;-79
2022/04/26 23:24:24;;;;;;;5.35;2.13;;;7.20;99.90;;;;;;5047708;28;20412;-79
2022/04/26 23:26:54;;;;;;;3.28;1.50;;;7.10;99.90;;;;;;5055555;28;20032;-80
2022/04/26 23:29:25;;;;;;;3.78;1.33;;;7.10;99.90;;;;;;5037738;28;20036;-80
2022/04/26 23:31:52;;;;;;;3.85;1.52;;;7.10;99.90;;;;;;5035794;28;20045;-82
2022/04/26 23:37:14;;;;;;;5.60;1.48;;;7.10;99.90;;;;;;5034111;28;20045;-82
2022/04/26 23:39:41;;;;;;;6.43;1.70;;;7.10;99.90;;;;;;5015458;28;20033;-85
2022/04/26 23:42:13;;;;;;;5.25;1.55;;;7.00;99.90;;;;;;5031576;28;20493;-85
2022/04/26 23:44:43;;;;;;;4.65;1.50;;;7.00;99.90;;;;;;5027681;28;20036;-82
2022/04/26 23:47:13;;;;;;;11.90;2.40;;;7.00;99.90;;;;;;5031175;28;20036;-81
2022/04/26 23:49:44;;;;;;;4.70;1.88;;;6.90;99.90;;;;;;5024571;28;20040;-82
2022/04/26 23:55:08;;;;;;;6.95;1.70;;;6.90;99.90;;;;;;5044076;28;20033;-84